Time;durP1;ratioP1;P1;durP2;ratioP2;P2;SDS_P1;SDS_P2;PMS_P1;PMS_P2;Temp;Humidity;BMP_temperature;BMP_pressure;BME280_temperature;BME280_humidity;BME280_pressure;Samples;Min_cycle;Max_cycle;Signal;HPM_P1;HPM_P2
2020/12/03 00:01:10;;;;;;;22.77;13.67;;;;;;;2.02;72.50;100288.22;5035133;28;20225;-68
2020/12/03 00:03:39;;;;;;;19.70;13.40;;;;;;;2.00;72.42;100297.91;5034339;28;20216;-69
2020/12/03 00:06:12;;;;;;;20.40;13.47;;;;;;;1.98;71.90;100284.81;5024501;28;20231;-69
2020/12/03 00:08:42;;;;;;;18.63;13.30;;;;;;;1.96;71.83;100272.69;5014955;28;20199;-69
2020/12/03 00:11:08;;;;;;;18.10;11.87;;;;;;;1.95;72.13;100268.34;5015701;28;20233;-69
2020/12/03 00:13:36;;;;;;;20.17;12.97;;;;;;;1.93;72.84;100271.00;5014450;28;20213;-69
2020/12/03 00:16:04;;;;;;;21.47;13.47;;;;;;;1.93;72.50;100273.63;5015060;28;20676;-68
2020/12/03 00:18:32;;;;;;;18.13;13.57;;;;;;;1.91;72.32;100272.84;5015125;28;20211;-69
2020/12/03 00:20:58;;;;;;;21.50;13.63;;;;;;;1.92;72.32;100266.66;5014990;28;20203;-69
2020/12/03 00:23:25;;;;;;;20.37;13.13;;;;;;;1.92;72.17;100269.28;5014534;28;20207;-69
2020/12/03 00:25:54;;;;;;;21.30;13.80;;;;;;;1.92;72.85;100271.91;5014482;28;20234;-69
2020/12/03 00:28:26;;;;;;;18.33;12.83;;;;;;;1.91;72.71;100259.69;5015355;28;20225;-69
2020/12/03 00:30:52;;;;;;;16.50;12.37;;;;;;;1.92;72.68;100255.31;5014563;28;20218;-68
2020/12/03 00:33:18;;;;;;;19.37;12.73;;;;;;;1.90;73.22;100255.34;5014475;28;20213;-69
2020/12/03 00:35:45;;;;;;;17.80;12.23;;;;;;;1.89;73.22;100244.91;5014329;28;20241;-69
2020/12/03 00:38:11;;;;;;;17.67;12.20;;;;;;;1.89;72.98;100242.28;5014652;28;20199;-69
2020/12/03 00:40:37;;;;;;;19.90;11.43;;;;;;;1.90;73.39;100244.00;5013889;28;20211;-69
2020/12/03 00:43:04;;;;;;;16.53;11.97;;;;;;;1.90;73.18;100236.97;5014135;28;20214;-69
2020/12/03 00:45:31;;;;;;;16.47;11.10;;;;;;;1.90;73.50;100233.50;5014797;28;20231;-69
2020/12/03 00:47:57;;;;;;;19.37;12.43;;;;;;;1.91;73.33;100228.19;5014484;28;20293;-69
2020/12/03 00:50:23;;;;;;;17.03;11.60;;;;;;;1.92;72.98;100221.16;5014723;28;20211;-69
2020/12/03 00:52:49;;;;;;;18.33;12.63;;;;;;;1.90;72.68;100218.59;5014533;28;20236;-69
2020/12/03 00:55:15;;;;;;;19.57;12.67;;;;;;;1.91;73.01;100225.56;5015344;28;20233;-69
2020/12/03 00:57:41;;;;;;;18.77;12.03;;;;;;;1.92;73.11;100222.03;5014755;28;20674;-69
2020/12/03 01:00:10;;;;;;;17.70;12.63;;;;;;;1.93;73.42;100218.50;5014427;28;20195;-69
2020/12/03 01:02:36;;;;;;;18.50;12.20;;;;;;;1.93;73.05;100217.63;5013378;28;20587;-68
2020/12/03 01:05:04;;;;;;;17.83;11.80;;;;;;;1.93;73.35;100215.88;5014237;28;20234;-69
2020/12/03 01:07:30;;;;;;;17.83;11.40;;;;;;;1.94;73.06;100211.47;5014305;28;20199;-69
2020/12/03 01:09:56;;;;;;;19.07;12.30;;;;;;;1.94;72.91;100204.44;5014142;28;20550;-69
2020/12/03 01:12:23;;;;;;;21.37;12.23;;;;;;;1.93;73.64;100201.88;5013286;28;20222;-68
2020/12/03 01:14:49;;;;;;;18.37;11.73;;;;;;;1.94;73.67;100201.81;5013858;28;20223;-69
2020/12/03 01:17:17;;;;;;;18.37;12.03;;;;;;;1.93;73.14;100194.00;5014049;28;20207;-68
2020/12/03 01:19:43;;;;;;;15.13;10.90;;;;;;;1.93;73.17;100194.84;5013359;28;20286;-69
2020/12/03 01:22:09;;;;;;;15.90;11.53;;;;;;;1.94;73.85;100187.84;5011729;28;20206;-69
2020/12/03 01:24:36;;;;;;;15.97;11.10;;;;;;;1.94;73.25;100191.31;5012894;28;20607;-69
2020/12/03 01:27:03;;;;;;;15.50;10.37;;;;;;;1.95;73.60;100181.69;5014037;28;20207;-68
2020/12/03 01:29:29;;;;;;;17.93;11.67;;;;;;;1.95;73.76;100177.28;5013433;28;20289;-69
2020/12/03 01:31:55;;;;;;;15.80;11.03;;;;;;;1.94;73.42;100170.31;5013174;28;20203;-69
2020/12/03 01:34:22;;;;;;;16.20;11.77;;;;;;;1.94;73.62;100159.81;5013761;28;20238;-69
2020/12/03 01:36:49;;;;;;;15.87;11.20;;;;;;;1.94;73.66;100154.56;5013896;28;20207;-69
2020/12/03 01:39:16;;;;;;;17.90;11.60;;;;;;;1.95;73.82;100153.66;5013546;28;20257;-69
2020/12/03 01:41:42;;;;;;;15.60;10.97;;;;;;;1.95;73.47;100142.28;5011280;28;20385;-69
2020/12/03 01:44:08;;;;;;;16.50;11.57;;;;;;;1.95;73.77;100123.91;5013430;28;20201;-69
2020/12/03 01:46:35;;;;;;;16.40;11.97;;;;;;;1.95;73.95;100130.00;5013069;28;20229;-69
2020/12/03 01:49:03;;;;;;;15.33;11.50;;;;;;;1.95;73.54;100127.38;5013563;28;20203;-69
2020/12/03 01:51:34;;;;;;;20.50;12.30;;;;;;;1.95;73.75;100119.50;5013059;28;20213;-68
2020/12/03 01:54:03;;;;;;;17.93;12.17;;;;;;;1.97;74.23;100122.06;5013372;28;20211;-69
2020/12/03 01:56:44;;;;;;;20.30;12.57;;;;;;;1.95;74.30;100116.88;5013030;28;20289;-69
2020/12/03 01:59:13;;;;;;;19.40;12.67;;;;;;;1.95;74.38;100114.25;5013067;28;20198;-69
2020/12/03 02:01:39;;;;;;;17.93;11.63;;;;;;;1.95;73.66;100113.41;5012556;28;20578;-69
2020/12/03 02:04:05;;;;;;;16.83;11.73;;;;;;;1.94;73.93;100112.53;5012673;28;20217;-68
2020/12/03 02:06:35;;;;;;;19.80;11.87;;;;;;;1.93;74.01;100099.47;5012248;28;20215;-70
2020/12/03 02:09:02;;;;;;;16.90;12.30;;;;;;;1.92;73.86;100085.47;5012959;28;20207;-68
2020/12/03 02:11:28;;;;;;;15.97;10.97;;;;;;;1.89;73.84;100077.72;5011625;28;20671;-68
2020/12/03 02:13:59;;;;;;;19.30;11.90;;;;;;;1.88;74.01;100076.00;5012413;28;20686;-69
2020/12/03 02:16:28;;;;;;;19.17;12.17;;;;;;;1.86;74.61;100067.31;5012088;28;20195;-69
2020/12/03 02:18:54;;;;;;;18.70;12.47;;;;;;;1.87;74.25;100073.41;5012622;28;20679;-69
2020/12/03 02:21:21;;;;;;;17.30;11.63;;;;;;;1.86;74.49;100076.97;5013201;28;20249;-68
2020/12/03 02:23:47;;;;;;;19.77;12.60;;;;;;;1.85;74.63;100073.47;5012078;28;20945;-69
2020/12/03 02:26:14;;;;;;;16.57;11.70;;;;;;;1.84;74.74;100084.03;5012632;28;20319;-69
2020/12/03 02:28:40;;;;;;;16.60;12.20;;;;;;;1.85;74.49;100081.34;5013245;28;20211;-69
2020/12/03 02:31:06;;;;;;;19.47;12.13;;;;;;;1.86;75.07;100077.81;5012739;28;20195;-68
2020/12/03 02:33:33;;;;;;;16.77;11.40;;;;;;;1.85;74.73;100068.22;5012067;28;20213;-69
2020/12/03 02:35:59;;;;;;;15.40;10.63;;;;;;;1.85;74.42;100073.47;5012635;28;20237;-69
2020/12/03 02:38:29;;;;;;;15.43;11.03;;;;;;;1.85;74.72;100068.22;5012695;28;20202;-69
2020/12/03 02:40:56;;;;;;;16.87;11.07;;;;;;;1.86;74.45;100069.09;5011982;28;20211;-68
2020/12/03 02:43:22;;;;;;;17.30;12.10;;;;;;;1.84;74.21;100068.28;5012409;28;20211;-69
2020/12/03 02:45:48;;;;;;;18.53;11.13;;;;;;;1.84;75.13;100063.88;5012472;28;20242;-69
2020/12/03 02:48:14;;;;;;;16.20;10.87;;;;;;;1.85;74.32;100065.59;5012715;28;20202;-69
2020/12/03 02:50:40;;;;;;;18.43;12.40;;;;;;;1.86;74.61;100069.09;5012563;28;20203;-69
2020/12/03 02:53:06;;;;;;;17.77;11.60;;;;;;;1.86;74.54;100059.44;5012034;28;20211;-69
2020/12/03 02:55:33;;;;;;;16.33;11.60;;;;;;;1.87;74.83;100055.03;5012577;28;20226;-68
2020/12/03 02:57:59;;;;;;;17.00;11.77;;;;;;;1.88;75.17;100054.97;5012518;28;20202;-69
2020/12/03 03:00:25;;;;;;;19.07;12.20;;;;;;;1.90;75.27;100057.56;5012748;28;20209;-68
2020/12/03 03:02:51;;;;;;;17.20;10.80;;;;;;;1.89;74.99;100048.81;5011941;28;20217;-68
2020/12/03 03:05:17;;;;;;;16.90;12.00;;;;;;;1.88;74.80;100039.22;5012591;28;20238;-69
2020/12/03 03:07:43;;;;;;;16.33;11.30;;;;;;;1.89;75.23;100038.31;5011744;28;20211;-69
2020/12/03 03:10:09;;;;;;;17.13;11.57;;;;;;;1.89;75.51;100034.84;5012978;28;20299;-69
2020/12/03 03:12:37;;;;;;;14.47;10.87;;;;;;;1.91;75.57;100033.88;5010547;28;20207;-69
2020/12/03 03:15:04;;;;;;;17.80;11.33;;;;;;;1.90;75.20;100026.91;5012683;28;20300;-69
2020/12/03 03:17:30;;;;;;;18.13;12.07;;;;;;;1.91;75.59;100028.63;5012727;28;20357;-68
2020/12/03 03:19:56;;;;;;;18.73;12.37;;;;;;;1.92;75.79;100019.81;5012122;28;20207;-69
2020/12/03 03:22:22;;;;;;;17.93;11.77;;;;;;;1.93;75.74;100010.19;5011435;28;20207;-69
2020/12/03 03:24:48;;;;;;;18.90;11.87;;;;;;;1.94;75.19;100012.75;5012441;28;20227;-69
2020/12/03 03:27:14;;;;;;;15.47;10.77;;;;;;;1.94;75.33;100004.00;5012709;28;20207;-69
2020/12/03 03:29:41;;;;;;;14.97;10.80;;;;;;;1.95;75.78;100016.22;5015642;28;20207;-70
2020/12/03 03:32:07;;;;;;;18.53;11.33;;;;;;;1.95;75.41;100016.22;5015070;28;20207;-69
2020/12/03 03:34:33;;;;;;;17.03;11.63;;;;;;;1.94;75.94;100004.00;5015621;28;20243;-70
2020/12/03 03:36:59;;;;;;;16.83;11.23;;;;;;;1.95;75.55;100003.09;5015881;28;20207;-69
2020/12/03 03:39:25;;;;;;;15.13;11.30;;;;;;;1.95;75.84;99998.72;5015733;28;20202;-70
2020/12/03 03:41:53;;;;;;;19.33;11.80;;;;;;;1.95;76.10;99988.19;5014919;28;20191;-69
2020/12/03 03:44:20;;;;;;;17.23;11.57;;;;;;;1.94;76.00;99991.75;5016299;28;20234;-69
2020/12/03 03:46:48;;;;;;;18.77;12.10;;;;;;;1.97;76.18;99996.84;5033874;28;20234;-69
2020/12/03 03:49:14;;;;;;;16.73;12.27;;;;;;;1.97;76.15;99996.84;5030429;28;20209;-69
2020/12/03 03:51:40;;;;;;;18.20;12.23;;;;;;;1.98;75.59;99985.44;5014338;28;20213;-69
2020/12/03 03:54:06;;;;;;;16.83;11.50;;;;;;;1.98;75.71;99972.31;5018424;28;20549;-70
2020/12/03 03:56:32;;;;;;;16.37;11.40;;;;;;;2.00;76.36;99975.72;5035529;28;20205;-69
2020/12/03 03:58:59;;;;;;;17.80;12.03;;;;;;;2.02;76.50;99981.78;5035364;28;20206;-69
2020/12/03 04:01:25;;;;;;;17.93;11.97;;;;;;;2.02;75.87;99973.91;5013860;28;20207;-69
2020/12/03 04:03:52;;;;;;;17.47;11.23;;;;;;;2.02;76.08;99976.53;5013730;28;20209;-69
2020/12/03 04:06:18;;;;;;;19.90;11.70;;;;;;;2.02;76.37;99975.66;5015198;28;20247;-70
2020/12/03 04:08:44;;;;;;;18.83;12.17;;;;;;;2.02;75.77;99968.66;5015194;28;20219;-69
2020/12/03 04:11:10;;;;;;;21.23;13.47;;;;;;;2.03;76.69;99977.38;5014980;28;20207;-68
2020/12/03 04:13:36;;;;;;;18.60;12.10;;;;;;;2.05;76.25;99976.41;5014285;28;20597;-69
2020/12/03 04:16:02;;;;;;;17.90;12.20;;;;;;;2.07;76.68;99977.22;5015242;28;20219;-69
2020/12/03 04:18:28;;;;;;;19.57;12.53;;;;;;;2.09;76.45;99964.03;5015072;28;20202;-69
2020/12/03 04:20:57;;;;;;;16.90;11.60;;;;;;;2.11;76.03;99966.59;5014518;28;20690;-68
2020/12/03 04:23:23;;;;;;;22.80;13.10;;;;;;;2.11;76.48;99961.34;5014189;28;20202;-69
2020/12/03 04:25:49;;;;;;;20.50;12.00;;;;;;;2.11;76.50;99961.34;5015061;28;20241;-69
2020/12/03 04:28:15;;;;;;;17.53;11.83;;;;;;;2.09;76.53;99949.13;5014934;28;20214;-70
2020/12/03 04:30:41;;;;;;;17.00;12.40;;;;;;;2.10;76.15;99947.34;5014706;28;20573;-69
2020/12/03 04:33:07;;;;;;;19.63;12.80;;;;;;;2.11;76.20;99946.44;5014127;28;20206;-69
2020/12/03 04:35:36;;;;;;;18.27;12.13;;;;;;;2.09;76.39;99928.09;5014339;28;20231;-69
2020/12/03 04:38:03;;;;;;;16.97;11.57;;;;;;;2.08;76.65;99931.66;5014806;28;20207;-69
2020/12/03 04:40:32;;;;;;;18.37;12.80;;;;;;;2.07;76.97;99927.31;5013104;28;20588;-69
2020/12/03 04:43:02;;;;;;;19.60;12.07;;;;;;;2.06;76.57;99920.34;5014043;28;20203;-69
2020/12/03 04:45:34;;;;;;;22.43;12.63;;;;;;;2.05;76.37;99916.00;5014240;28;20227;-69
2020/12/03 04:48:20;;;;;;;18.00;12.03;;;;;;;2.06;76.87;99919.47;5014610;28;20585;-69
2020/12/03 04:50:56;;;;;;;18.50;11.90;;;;;;;2.05;76.95;99913.38;5014325;28;20213;-70
2020/12/03 04:53:39;;;;;;;16.40;11.23;;;;;;;2.06;76.34;99903.72;5014007;28;20207;-69
2020/12/03 04:56:09;;;;;;;18.53;12.07;;;;;;;2.06;76.98;99906.34;5014138;28;20222;-69
2020/12/03 04:58:46;;;;;;;17.23;12.30;;;;;;;2.05;77.00;99909.91;5018379;28;20209;-69
2020/12/03 05:01:40;;;;;;;17.23;11.70;;;;;;;2.05;76.75;99907.28;5013796;28;20698;-69
2020/12/03 05:04:10;;;;;;;16.63;12.20;;;;;;;2.04;76.88;99906.41;5017127;28;20209;-69
2020/12/03 05:06:47;;;;;;;17.90;12.00;;;;;;;2.04;77.02;99895.91;5015070;28;20266;-69
2020/12/03 05:09:21;;;;;;;18.77;12.80;;;;;;;2.06;76.51;99893.22;5029238;28;20721;-69
2020/12/03 05:11:53;;;;;;;19.20;12.27;;;;;;;2.07;76.62;99892.31;5017082;28;20249;-69
2020/12/03 05:14:38;;;;;;;19.27;11.97;;;;;;;2.06;77.10;99886.19;5027184;28;20699;-69
2020/12/03 05:17:25;;;;;;;17.50;11.80;;;;;;;2.06;76.60;99883.56;5010868;28;20203;-70
2020/12/03 05:20:12;;;;;;;18.47;12.67;;;;;;;2.08;76.80;99887.00;5033435;28;20655;-69
2020/12/03 05:22:39;;;;;;;17.93;12.40;;;;;;;2.08;77.18;99879.13;5019394;28;20217;-69
2020/12/03 05:25:13;;;;;;;16.63;11.23;;;;;;;2.09;76.88;99872.09;5023607;28;20732;-69
2020/12/03 05:27:40;;;;;;;16.07;11.03;;;;;;;2.09;76.75;99874.72;4997815;28;20668;-70
2020/12/03 05:30:08;;;;;;;15.80;11.40;;;;;;;2.11;76.91;99878.13;5022321;28;20614;-71
2020/12/03 05:32:35;;;;;;;18.67;11.57;;;;;;;2.12;76.84;99879.84;5012432;28;20601;-69
2020/12/03 05:35:02;;;;;;;17.60;11.17;;;;;;;2.14;76.85;99869.28;5034113;23;20585;-67
2020/12/03 05:37:31;;;;;;;16.60;11.80;;;;;;;2.14;77.33;99862.25;5024640;28;20201;-67
2020/12/03 05:39:58;;;;;;;16.23;11.17;;;;;;;2.13;77.21;99860.53;5023658;28;20213;-67
2020/12/03 05:42:28;;;;;;;17.07;12.00;;;;;;;2.14;77.30;99859.63;5023929;28;20202;-67
2020/12/03 05:44:56;;;;;;;16.73;11.73;;;;;;;2.13;76.71;99864.94;5030240;28;20218;-67
2020/12/03 05:47:28;;;;;;;20.77;12.33;;;;;;;2.13;76.57;99859.69;5033184;28;20203;-67
2020/12/03 05:49:58;;;;;;;20.57;13.23;;;;;;;2.13;76.85;99859.69;5032366;28;20671;-67
2020/12/03 05:52:26;;;;;;;18.63;12.57;;;;;;;2.14;77.33;99861.41;5031746;28;20195;-67
2020/12/03 05:55:01;;;;;;;17.83;12.50;;;;;;;2.15;76.85;99852.59;5032340;28;20233;-66
2020/12/03 05:57:32;;;;;;;17.97;12.27;;;;;;;2.15;76.82;99849.97;5027442;28;20212;-67
2020/12/03 06:00:18;;;;;;;17.63;12.30;;;;;;;2.13;76.93;99842.16;5029874;28;20194;-66
2020/12/03 06:02:58;;;;;;;18.37;12.70;;;;;;;2.13;77.18;99839.53;5027686;28;20580;-66
2020/12/03 06:05:30;;;;;;;19.50;12.57;;;;;;;2.12;77.10;99837.81;5032105;28;20234;-66
2020/12/03 06:08:06;;;;;;;19.80;12.97;;;;;;;2.12;77.30;99845.69;5026920;28;20207;-67
2020/12/03 06:10:59;;;;;;;23.37;13.37;;;;;;;2.13;77.11;99838.69;5032091;28;20201;-67
2020/12/03 06:13:58;;;;;;;21.83;13.80;;;;;;;2.14;77.28;99843.00;5030062;28;20654;-66
2020/12/03 06:16:34;;;;;;;20.57;14.27;;;;;;;2.13;77.23;99843.94;5030705;28;20222;-67
2020/12/03 06:19:14;;;;;;;22.30;13.53;;;;;;;2.13;77.36;99838.69;5031520;28;20208;-67
2020/12/03 06:22:00;;;;;;;27.10;16.57;;;;;;;2.14;76.92;99837.75;5031372;28;20206;-66
2020/12/03 06:24:37;;;;;;;26.70;15.13;;;;;;;2.14;77.11;99825.47;5031362;28;20201;-66
2020/12/03 06:27:22;;;;;;;25.70;15.50;;;;;;;2.14;76.71;99824.63;5019667;28;20590;-67
2020/12/03 06:30:12;;;;;;;21.83;15.03;;;;;;;2.16;77.27;99822.75;5031112;28;20213;-66
2020/12/03 06:32:48;;;;;;;25.33;14.87;;;;;;;2.17;77.08;99816.59;5030647;28;20208;-66
2020/12/03 06:35:23;;;;;;;24.30;15.60;;;;;;;2.18;77.14;99813.03;5031153;28;20233;-66
2020/12/03 06:37:56;;;;;;;26.90;15.87;;;;;;;2.20;77.03;99813.84;5032098;28;20296;-66
2020/12/03 06:40:26;;;;;;;22.57;14.97;;;;;;;2.21;77.44;99820.81;5030180;28;20209;-66
2020/12/03 06:42:57;;;;;;;27.67;17.73;;;;;;;2.23;77.15;99813.72;5031617;28;20202;-66
2020/12/03 06:45:32;;;;;;;25.00;15.63;;;;;;;2.25;76.86;99811.88;5032743;28;20257;-66
2020/12/03 06:48:12;;;;;;;28.80;16.90;;;;;;;2.26;77.07;99813.59;5031800;28;20573;-66
2020/12/03 06:51:11;;;;;;;28.60;16.47;;;;;;;2.25;77.46;99812.75;5032655;28;20211;-66
2020/12/03 06:54:14;;;;;;;25.93;15.80;;;;;;;2.24;77.11;99810.16;5031729;28;20206;-65
2020/12/03 06:57:14;;;;;;;25.70;15.73;;;;;;;2.21;77.97;99800.66;5032416;28;20225;-66
2020/12/03 07:00:09;;;;;;;27.60;15.90;;;;;;;2.20;77.30;99803.34;5032211;28;20210;-66
2020/12/03 07:03:21;;;;;;;25.87;15.60;;;;;;;2.16;77.03;99802.59;5014735;28;20206;-65
2020/12/03 07:06:14;;;;;;;27.40;15.57;;;;;;;2.14;77.25;99791.34;5033002;28;20237;-65
2020/12/03 07:09:05;;;;;;;28.47;15.70;;;;;;;2.13;77.53;99796.66;5035870;28;20297;-65
2020/12/03 07:12:14;;;;;;;27.33;15.43;;;;;;;2.11;77.79;99796.72;5034771;28;20217;-66
2020/12/03 07:15:08;;;;;;;26.50;14.53;;;;;;;2.10;78.03;99781.88;5024835;28;20604;-66
2020/12/03 07:18:04;;;;;;;25.27;15.47;;;;;;;2.10;77.88;99792.38;5032793;28;20210;-66
2020/12/03 07:21:02;;;;;;;24.13;14.23;;;;;;;2.10;78.05;99781.88;5004296;28;20661;-66
2020/12/03 07:23:38;;;;;;;23.73;14.93;;;;;;;2.11;77.81;99778.31;5015768;28;20214;-66
2020/12/03 07:26:17;;;;;;;23.10;14.83;;;;;;;2.12;77.49;99766.06;5015942;28;20231;-66
2020/12/03 07:28:48;;;;;;;24.03;14.27;;;;;;;2.12;77.97;99771.31;5020001;28;20740;-66
2020/12/03 07:31:20;;;;;;;24.33;13.67;;;;;;;2.13;77.58;99775.63;5035593;28;20458;-66
2020/12/03 07:34:19;;;;;;;27.97;15.27;;;;;;;2.14;78.09;99766.84;5035703;28;20600;-66
2020/12/03 07:36:54;;;;;;;24.80;14.70;;;;;;;2.14;78.30;99761.59;5035855;28;20194;-66
2020/12/03 07:39:25;;;;;;;24.33;14.63;;;;;;;2.14;78.26;99764.22;5035569;28;20574;-66
2020/12/03 07:41:55;;;;;;;22.97;13.83;;;;;;;2.14;77.84;99762.44;5035062;28;20206;-66
2020/12/03 07:44:32;;;;;;;24.00;14.53;;;;;;;2.15;77.41;99761.50;5035631;28;20592;-65
2020/12/03 07:47:21;;;;;;;22.23;14.93;;;;;;;2.16;78.21;99751.84;5035534;28;20226;-66
2020/12/03 07:49:49;;;;;;;22.33;13.47;;;;;;;2.18;77.45;99752.63;5035480;28;20206;-66
2020/12/03 07:52:27;;;;;;;21.47;13.43;;;;;;;2.21;78.25;99749.88;5035348;28;20256;-66
2020/12/03 07:55:15;;;;;;;20.23;13.00;;;;;;;2.23;77.92;99745.41;5035326;28;20222;-66
2020/12/03 07:57:51;;;;;;;21.50;13.07;;;;;;;2.24;77.38;99736.63;5035586;28;20280;-66
2020/12/03 08:00:43;;;;;;;20.20;12.43;;;;;;;2.25;78.18;99731.28;5035001;28;20204;-66
2020/12/03 08:03:10;;;;;;;21.57;13.30;;;;;;;2.30;78.15;99738.97;5035069;28;20205;-66
2020/12/03 08:05:51;;;;;;;20.03;13.57;;;;;;;2.30;77.71;99731.94;5035084;28;20234;-66
2020/12/03 08:08:33;;;;;;;23.97;14.80;;;;;;;2.32;78.17;99730.13;5035829;28;20224;-66
2020/12/03 08:11:00;;;;;;;24.43;14.00;;;;;;;2.36;77.55;99731.66;5034895;28;20224;-66
2020/12/03 08:13:30;;;;;;;24.70;15.13;;;;;;;2.38;77.68;99732.44;5035009;28;20202;-66
2020/12/03 08:16:02;;;;;;;19.33;13.07;;;;;;;2.40;77.64;99720.09;5033805;28;20218;-66
2020/12/03 08:18:46;;;;;;;20.50;13.43;;;;;;;2.43;77.46;99721.75;5035435;28;20293;-66
2020/12/03 08:21:15;;;;;;;25.30;15.73;;;;;;;2.45;77.33;99714.66;5034810;28;20206;-66
2020/12/03 08:23:50;;;;;;;22.73;14.63;;;;;;;2.47;77.36;99709.31;5034697;28;20209;-66
2020/12/03 08:26:24;;;;;;;24.03;16.13;;;;;;;2.49;77.17;99702.22;5034648;28;20229;-66
2020/12/03 08:28:51;;;;;;;22.73;14.03;;;;;;;2.50;77.03;99701.31;5035163;28;20198;-66
2020/12/03 08:31:16;;;;;;;23.67;15.10;;;;;;;2.52;77.30;99683.66;5034456;28;20202;-66
2020/12/03 08:33:43;;;;;;;23.87;15.13;;;;;;;2.53;77.71;99675.72;5034816;28;20693;-66
2020/12/03 08:36:11;;;;;;;21.17;14.23;;;;;;;2.55;77.16;99663.34;5034460;28;20245;-66
2020/12/03 08:38:39;;;;;;;23.83;14.50;;;;;;;2.57;77.83;99658.88;5034858;28;20210;-66
2020/12/03 08:41:08;;;;;;;25.13;14.87;;;;;;;2.57;77.51;99665.91;5034284;28;20621;-66
2020/12/03 08:43:41;;;;;;;22.13;14.40;;;;;;;2.59;77.78;99666.69;5034523;28;20241;-66
2020/12/03 08:46:11;;;;;;;20.90;13.57;;;;;;;2.59;76.92;99666.69;5033793;28;20272;-66
2020/12/03 08:48:39;;;;;;;24.57;15.00;;;;;;;2.60;76.87;99661.38;5033767;28;20252;-66
2020/12/03 08:51:09;;;;;;;22.50;14.00;;;;;;;2.63;77.52;99655.13;5033790;28;20194;-67
2020/12/03 08:53:37;;;;;;;21.47;13.70;;;;;;;2.64;76.75;99660.31;5031429;28;20206;-66
2020/12/03 08:56:19;;;;;;;20.73;13.43;;;;;;;2.66;76.68;99653.22;5034121;28;20214;-66
2020/12/03 08:58:56;;;;;;;20.83;13.47;;;;;;;2.68;77.29;99650.50;5031992;28;20726;-67
2020/12/03 09:01:24;;;;;;;21.03;13.20;;;;;;;2.69;76.61;99652.19;5032474;28;20198;-66
2020/12/03 09:03:51;;;;;;;17.37;12.83;;;;;;;2.69;76.41;99655.66;5033159;28;20202;-66
2020/12/03 09:06:19;;;;;;;19.47;12.70;;;;;;;2.69;77.33;99646.94;5033310;28;20316;-66
2020/12/03 09:08:45;;;;;;;19.40;13.70;;;;;;;2.71;76.30;99648.56;5030309;28;20237;-66
2020/12/03 09:11:11;;;;;;;20.63;13.40;;;;;;;2.72;77.12;99659.94;5031843;28;20205;-67
2020/12/03 09:13:37;;;;;;;19.27;12.93;;;;;;;2.74;76.15;99648.44;5033332;28;20202;-67
2020/12/03 09:16:06;;;;;;;20.60;12.97;;;;;;;2.76;76.60;99646.59;5033503;28;20214;-66
2020/12/03 09:18:41;;;;;;;21.40;13.53;;;;;;;2.78;76.02;99652.63;5034073;28;20264;-66
2020/12/03 09:21:08;;;;;;;19.17;12.37;;;;;;;2.80;76.37;99634.16;5033549;28;20623;-66
2020/12/03 09:23:36;;;;;;;20.43;13.20;;;;;;;2.82;76.30;99623.56;5033178;28;20194;-66
2020/12/03 09:26:14;;;;;;;18.13;11.80;;;;;;;2.85;76.13;99628.69;5032719;28;20322;-66
2020/12/03 09:28:44;;;;;;;21.90;13.40;;;;;;;2.87;76.34;99632.06;5032054;28;20202;-66
2020/12/03 09:31:11;;;;;;;19.70;13.37;;;;;;;2.90;75.60;99629.28;5033078;28;20194;-66
2020/12/03 09:33:38;;;;;;;21.33;12.33;;;;;;;2.92;76.39;99633.56;5033174;28;20206;-66
2020/12/03 09:36:04;;;;;;;19.87;13.17;;;;;;;2.95;75.50;99627.28;5032718;28;20708;-66
2020/12/03 09:38:31;;;;;;;21.90;14.17;;;;;;;2.98;75.72;99624.53;5030448;28;20285;-66
2020/12/03 09:40:58;;;;;;;22.60;13.43;;;;;;;3.02;75.63;99626.09;5032918;28;20198;-66
2020/12/03 09:43:25;;;;;;;19.30;13.00;;;;;;;3.03;75.37;99625.16;5032786;28;20204;-66
2020/12/03 09:45:54;;;;;;;22.43;13.33;;;;;;;3.07;75.36;99624.91;5032636;28;20237;-66
2020/12/03 09:48:22;;;;;;;21.70;12.53;;;;;;;3.10;75.31;99616.88;5031835;28;20205;-66
2020/12/03 09:50:49;;;;;;;21.73;13.13;;;;;;;3.11;74.97;99605.44;5031285;28;20198;-66
2020/12/03 09:53:17;;;;;;;24.17;13.13;;;;;;;3.14;75.92;99591.28;5030123;28;20210;-67
2020/12/03 09:55:43;;;;;;;28.83;15.93;;;;;;;3.19;75.91;99585.78;5030202;28;20226;-66
2020/12/03 09:58:10;;;;;;;21.73;13.10;;;;;;;3.24;75.32;99595.13;5030971;28;20354;-67
2020/12/03 10:00:39;;;;;;;18.80;12.00;;;;;;;3.28;74.90;99594.06;5031357;28;20213;-66
2020/12/03 10:03:35;;;;;;;19.43;12.53;;;;;;;3.32;75.58;99592.13;5031094;28;20241;-66
2020/12/03 10:06:11;;;;;;;18.20;11.80;;;;;;;3.34;75.34;99582.38;5032821;28;20236;-66
2020/12/03 10:09:13;;;;;;;16.97;10.37;;;;;;;3.36;74.59;99583.16;5032935;28;20307;-66
2020/12/03 10:12:19;;;;;;;20.03;12.20;;;;;;;3.35;74.98;99579.66;5033038;28;20218;-66
2020/12/03 10:15:02;;;;;;;17.60;11.67;;;;;;;3.37;74.31;99576.97;4993009;28;20221;-66
2020/12/03 10:17:33;;;;;;;17.77;10.97;;;;;;;3.36;74.51;99573.47;5032856;28;20277;-66
2020/12/03 10:20:01;;;;;;;17.67;10.63;;;;;;;3.38;74.05;99563.72;5033252;28;20217;-66
2020/12/03 10:22:34;;;;;;;18.00;11.17;;;;;;;3.39;74.60;99554.91;5032355;28;20290;-66
2020/12/03 10:25:15;;;;;;;18.67;10.97;;;;;;;3.41;73.73;99549.53;5031987;28;20232;-66
2020/12/03 10:27:43;;;;;;;13.40;9.23;;;;;;;3.43;74.64;99545.91;5031679;28;20317;-66
2020/12/03 10:30:19;;;;;;;16.47;10.40;;;;;;;3.45;74.46;99541.41;5032710;28;20682;-66
2020/12/03 10:32:51;;;;;;;16.33;10.07;;;;;;;3.48;74.25;99541.25;5032410;28;20201;-66
2020/12/03 10:35:17;;;;;;;16.20;10.70;;;;;;;3.50;73.94;99538.56;5032646;28;20256;-66
2020/12/03 10:37:46;;;;;;;17.83;11.43;;;;;;;3.54;73.60;99549.78;5033939;28;20202;-66
2020/12/03 10:40:16;;;;;;;14.83;10.13;;;;;;;3.58;73.90;99536.38;5036777;28;20693;-66
2020/12/03 10:42:53;;;;;;;16.07;10.37;;;;;;;3.59;73.20;99538.06;5036165;28;20206;-66
2020/12/03 10:45:26;;;;;;;17.60;10.30;;;;;;;3.62;73.79;99537.03;5035985;28;20229;-66
2020/12/03 10:47:57;;;;;;;17.10;10.63;;;;;;;3.64;73.65;99529.91;5035812;28;20666;-67
2020/12/03 10:50:50;;;;;;;15.07;10.33;;;;;;;3.66;73.30;99536.81;5033916;28;20208;-66
2020/12/03 10:53:21;;;;;;;15.17;9.93;;;;;;;3.65;72.76;99521.94;5034808;28;20273;-66
2020/12/03 10:55:54;;;;;;;18.37;10.17;;;;;;;3.65;73.43;99531.63;5036167;28;20268;-66
2020/12/03 10:58:26;;;;;;;17.77;10.50;;;;;;;3.64;72.74;99524.66;5033575;28;20206;-67
2020/12/03 11:00:54;;;;;;;18.60;11.20;;;;;;;3.66;72.73;99520.16;5035569;28;20268;-66
2020/12/03 11:03:27;;;;;;;17.10;11.20;;;;;;;3.65;73.25;99516.69;5035634;28;20202;-66
2020/12/03 11:05:54;;;;;;;15.50;10.63;;;;;;;3.63;72.60;99508.00;5033721;28;20218;-67
2020/12/03 11:08:22;;;;;;;17.20;10.90;;;;;;;3.62;73.14;99510.72;5035638;28;20205;-66
2020/12/03 11:10:53;;;;;;;19.00;11.73;;;;;;;3.61;72.76;99503.75;5035934;28;20202;-67
2020/12/03 11:13:20;;;;;;;16.63;11.00;;;;;;;3.59;72.82;99508.25;5035373;28;20205;-66
2020/12/03 11:15:48;;;;;;;18.10;11.30;;;;;;;3.58;72.25;99501.31;5035829;28;20220;-66
2020/12/03 11:18:20;;;;;;;18.23;10.30;;;;;;;3.59;72.46;99506.47;5035668;28;20194;-66
2020/12/03 11:20:51;;;;;;;17.33;11.47;;;;;;;3.60;72.85;99492.38;5033115;28;20202;-66
2020/12/03 11:23:21;;;;;;;19.60;11.63;;;;;;;3.60;72.61;99488.88;5035393;28;20194;-66
2020/12/03 11:25:49;;;;;;;18.13;11.50;;;;;;;3.61;72.46;99485.31;5035184;28;20222;-66
2020/12/03 11:28:28;;;;;;;14.37;10.03;;;;;;;3.65;73.24;99492.13;5035455;28;20296;-67
2020/12/03 11:31:02;;;;;;;17.33;10.77;;;;;;;3.67;72.92;99485.84;5035051;28;20284;-66
2020/12/03 11:33:31;;;;;;;16.73;10.87;;;;;;;3.67;72.90;99487.63;5035244;28;20194;-66
2020/12/03 11:36:09;;;;;;;15.27;10.67;;;;;;;3.68;72.15;99482.28;5033824;28;20642;-66
2020/12/03 11:38:36;;;;;;;16.07;10.00;;;;;;;3.70;72.80;99480.44;5035716;28;20230;-66
2020/12/03 11:41:07;;;;;;;16.63;10.60;;;;;;;3.70;72.18;99467.25;5035318;28;20754;-66
2020/12/03 11:44:04;;;;;;;15.67;10.17;;;;;;;3.70;72.59;99448.84;5034890;28;20301;-66